createdAt,value
2023-01-28T00:00:57.281Z,85.73
2023-01-28T00:03:23.925Z,85.76
2023-01-28T00:05:50.925Z,84.86
2023-01-28T00:08:17.334Z,84.49
2023-01-28T00:10:43.929Z,84.53
2023-01-28T00:13:14.651Z,84.54
2023-01-28T00:15:41.763Z,84.61
2023-01-28T00:18:08.200Z,84.97
2023-01-28T00:20:35.309Z,84.12
2023-01-28T00:23:01.981Z,83.65
2023-01-28T00:25:28.344Z,82.72
2023-01-28T00:27:55.134Z,82.72
2023-01-28T00:30:21.923Z,82.74
2023-01-28T00:32:48.288Z,83.34
2023-01-28T00:35:15.475Z,81.92
2023-01-28T00:37:42.277Z,81.19
2023-01-28T00:40:09.928Z,81.79
2023-01-28T00:42:37.511Z,82.18
2023-01-28T00:45:04.259Z,81.95
2023-01-28T00:47:30.639Z,80.78
2023-01-28T00:49:57.181Z,81.00
2023-01-28T00:52:23.653Z,82.06
2023-01-28T00:54:50.025Z,82.55
2023-01-28T00:57:16.407Z,83.07
2023-01-28T00:59:43.594Z,83.22
2023-01-28T01:02:13.160Z,83.76
2023-01-28T01:04:40.575Z,84.28
2023-01-28T01:07:07.295Z,84.80
2023-01-28T01:09:33.716Z,84.65
2023-01-28T01:12:00.177Z,85.22
2023-01-28T01:14:26.747Z,84.53
2023-01-28T01:16:53.143Z,84.02
2023-01-28T01:19:19.695Z,84.36
2023-01-28T01:21:50.285Z,84.94
2023-01-28T01:24:16.846Z,83.82
2023-01-28T01:26:43.482Z,83.67
2023-01-28T01:29:09.938Z,82.65
2023-01-28T01:31:36.519Z,82.62
2023-01-28T01:34:02.985Z,82.61
2023-01-28T01:36:29.508Z,82.35
2023-01-28T01:38:56.337Z,81.85
2023-01-28T01:41:32.081Z,82.11
2023-01-28T01:44:01.459Z,81.88
2023-01-28T01:46:45.978Z,82.00
2023-01-28T01:49:23.440Z,82.24
2023-01-28T01:51:54.610Z,82.37
2023-01-28T01:54:26.681Z,81.80
2023-01-28T01:56:53.342Z,81.80
2023-01-28T01:59:24.818Z,81.75
2023-01-28T02:01:52.399Z,81.99
2023-01-28T02:04:32.324Z,81.59
2023-01-28T02:07:01.390Z,81.58
2023-01-28T02:09:38.408Z,80.73
2023-01-28T02:12:10.265Z,80.76
2023-01-28T02:14:42.264Z,80.59
2023-01-28T02:17:09.435Z,80.24
2023-01-28T02:19:57.209Z,80.25
2023-01-28T02:22:45.714Z,80.87
2023-01-28T02:25:36.743Z,79.93
2023-01-28T02:28:15.646Z,80.25
2023-01-28T02:30:51.770Z,80.10
2023-01-28T02:33:28.385Z,81.16
2023-01-28T02:35:56.087Z,80.06
2023-01-28T02:38:37.608Z,79.90
2023-01-28T02:41:11.736Z,80.85
2023-01-28T02:43:44.601Z,80.85
2023-01-28T02:46:32.971Z,80.17
2023-01-28T02:48:59.708Z,79.98
2023-01-28T02:51:37.844Z,80.28
2023-01-28T02:54:12.672Z,80.34
2023-01-28T02:57:05.997Z,80.61
2023-01-28T02:59:55.625Z,80.53
2023-01-28T03:02:50.707Z,79.68
2023-01-28T03:05:29.537Z,78.10
2023-01-28T03:07:57.398Z,77.13
2023-01-28T03:10:27.298Z,77.20
2023-01-28T03:13:15.120Z,77.80
2023-01-28T03:16:05.231Z,78.92
2023-01-28T03:19:10.831Z,79.75
2023-01-28T03:22:01.358Z,80.54
2023-01-28T03:24:56.907Z,81.38
2023-01-28T03:27:52.419Z,80.96
2023-01-28T03:30:48.090Z,82.13
2023-01-28T03:33:45.007Z,82.33
2023-01-28T03:36:30.632Z,81.84
2023-01-28T03:38:58.431Z,80.12
2023-01-28T03:41:26.255Z,79.47
2023-01-28T03:43:56.009Z,78.82
2023-01-28T03:46:22.721Z,79.35
2023-01-28T03:48:49.167Z,79.35
2023-01-28T03:51:16.517Z,78.76
2023-01-28T03:53:42.911Z,77.47
2023-01-28T03:56:18.041Z,77.16
2023-01-28T03:58:56.332Z,77.09
2023-01-28T04:01:24.091Z,77.45
2023-01-28T04:03:50.594Z,77.24
2023-01-28T04:06:28.825Z,77.22
2023-01-28T04:09:14.081Z,77.34
2023-01-28T04:11:50.890Z,76.76
2023-01-28T04:14:23.773Z,76.52
2023-01-28T04:16:56.788Z,75.58
2023-01-28T04:19:26.070Z,75.76
2023-01-28T04:21:54.393Z,75.21
2023-01-28T04:24:22.723Z,74.88
2023-01-28T04:26:50.202Z,75.36
2023-01-28T04:29:16.861Z,75.82
2023-01-28T04:31:43.921Z,76.28
2023-01-28T04:34:34.496Z,75.32
2023-01-28T04:37:22.075Z,76.54
2023-01-28T04:40:07.739Z,76.05
2023-01-28T04:42:54.465Z,75.92
2023-01-28T04:45:30.970Z,76.10
2023-01-28T04:48:25.651Z,76.29
2023-01-28T04:51:06.304Z,76.05
2023-01-28T04:53:35.637Z,76.54
2023-01-28T04:56:22.376Z,76.27
2023-01-28T04:58:48.760Z,76.12
2023-01-28T05:01:16.566Z,76.01
2023-01-28T05:03:42.990Z,77.11
2023-01-28T05:06:14.757Z,77.29
2023-01-28T05:08:43.451Z,76.08
2023-01-28T05:11:09.895Z,76.28
2023-01-28T05:13:36.323Z,76.02
2023-01-28T05:16:03.609Z,76.52
2023-01-28T05:18:30.148Z,76.68
2023-01-28T05:21:09.420Z,76.72
2023-01-28T05:23:38.590Z,76.58
2023-01-28T05:26:05.951Z,76.38
2023-01-28T05:28:33.903Z,76.46
2023-01-28T05:31:07.275Z,76.03
2023-01-28T05:33:33.907Z,76.14
2023-01-28T05:36:01.580Z,76.43
2023-01-28T05:38:28.388Z,74.89
2023-01-28T05:40:55.018Z,75.49
2023-01-28T05:43:21.889Z,74.53
2023-01-28T05:46:08.691Z,75.01
2023-01-28T05:48:55.073Z,75.38
2023-01-28T05:51:44.197Z,74.87
2023-01-28T05:54:14.209Z,75.00
2023-01-28T05:56:40.837Z,75.54
2023-01-28T05:59:07.313Z,75.22
2023-01-28T06:01:35.157Z,76.06
2023-01-28T06:04:01.681Z,77.01
2023-01-28T06:06:30.983Z,76.19
2023-01-28T06:08:57.576Z,77.18
2023-01-28T06:11:29.737Z,77.07
2023-01-28T06:14:00.804Z,77.29
2023-01-28T06:16:52.146Z,75.62
2023-01-28T06:19:26.416Z,76.63
2023-01-28T06:21:52.899Z,76.57
2023-01-28T06:24:19.919Z,77.27
2023-01-28T06:26:46.324Z,78.50
2023-01-28T06:29:12.906Z,77.77
2023-01-28T06:31:39.298Z,76.56
2023-01-28T06:34:06.016Z,77.42
2023-01-28T06:36:32.853Z,76.94
2023-01-28T06:39:00.193Z,77.99
2023-01-28T06:41:26.612Z,78.96
2023-01-28T06:43:53.413Z,79.47
2023-01-28T06:46:19.921Z,78.95
2023-01-28T06:48:46.397Z,78.74
2023-01-28T06:51:12.807Z,78.97
2023-01-28T06:53:39.228Z,77.92
2023-01-28T06:56:05.897Z,76.39
2023-01-28T06:58:32.530Z,75.70
2023-01-28T07:00:58.933Z,77.61
2023-01-28T07:03:25.771Z,77.30
2023-01-28T07:05:52.547Z,77.29
2023-01-28T07:08:18.915Z,77.24
2023-01-28T07:10:45.764Z,78.19
2023-01-28T07:13:12.326Z,76.85
2023-01-28T07:15:38.726Z,76.19
2023-01-28T07:18:05.391Z,76.83
2023-01-28T07:20:31.860Z,76.81
2023-01-28T07:22:58.287Z,76.63
2023-01-28T07:25:24.935Z,76.76
2023-01-28T07:27:53.615Z,78.03
2023-01-28T07:30:21.053Z,78.44
2023-01-28T07:32:52.675Z,79.39
2023-01-28T07:35:19.140Z,78.40
2023-01-28T07:37:54.437Z,77.56
2023-01-28T07:40:21.554Z,78.13
2023-01-28T07:42:48.372Z,77.53
2023-01-28T07:45:15.556Z,77.43
2023-01-28T07:47:42.254Z,77.47
2023-01-28T07:50:10.986Z,77.50
2023-01-28T07:52:44.205Z,77.81
2023-01-28T07:55:15.433Z,78.17
2023-01-28T07:57:49.920Z,78.50
2023-01-28T08:00:17.242Z,76.88
2023-01-28T08:02:47.895Z,77.00
2023-01-28T08:05:19.292Z,76.81
2023-01-28T08:07:46.641Z,75.82
2023-01-28T08:10:13.683Z,75.62
2023-01-28T08:12:40.339Z,77.05
2023-01-28T08:15:07.554Z,76.53
2023-01-28T08:17:34.147Z,76.26
2023-01-28T08:20:00.578Z,75.96
2023-01-28T08:22:27.942Z,76.82
2023-01-28T08:24:54.342Z,76.37
2023-01-28T08:27:20.767Z,76.22
2023-01-28T08:29:47.139Z,74.77
2023-01-28T08:32:13.529Z,75.28
2023-01-28T08:34:39.888Z,74.57
2023-01-28T08:37:06.390Z,73.90
2023-01-28T08:39:32.812Z,74.97
2023-01-28T08:41:59.176Z,74.93
2023-01-28T08:44:25.530Z,74.86
2023-01-28T08:46:51.928Z,73.90
2023-01-28T08:49:18.311Z,73.85
2023-01-28T08:51:44.722Z,73.95
2023-01-28T08:54:11.259Z,74.18
2023-01-28T08:56:38.938Z,74.09
2023-01-28T08:59:05.335Z,73.48
2023-01-28T09:01:32.125Z,74.35
2023-01-28T09:03:59.299Z,73.62
2023-01-28T09:06:25.734Z,73.72
2023-01-28T09:08:52.309Z,73.21
2023-01-28T09:11:18.990Z,73.10
2023-01-28T09:13:45.412Z,73.70
2023-01-28T09:16:11.881Z,73.74
2023-01-28T09:18:38.313Z,74.49
2023-01-28T09:21:06.513Z,74.00
2023-01-28T09:23:36.498Z,73.30
2023-01-28T09:26:04.448Z,73.05
2023-01-28T09:28:31.476Z,73.13
2023-01-28T09:31:09.108Z,72.33
2023-01-28T09:33:37.227Z,71.87
2023-01-28T09:36:05.617Z,73.78
2023-01-28T09:38:34.979Z,73.88
2023-01-28T09:41:03.941Z,74.98
2023-01-28T09:43:54.361Z,74.81
2023-01-28T09:46:20.991Z,73.92
2023-01-28T09:48:52.072Z,73.48
2023-01-28T09:51:40.397Z,73.80
2023-01-28T09:54:49.846Z,73.81
2023-01-28T09:57:23.343Z,72.86
2023-01-28T09:59:50.263Z,73.48
2023-01-28T10:02:33.947Z,72.83
2023-01-28T10:05:06.960Z,72.16
2023-01-28T10:07:41.426Z,72.19
2023-01-28T10:10:28.765Z,73.07
2023-01-28T10:13:02.177Z,72.18
2023-01-28T10:15:43.504Z,72.37
2023-01-28T10:18:17.718Z,72.48
2023-01-28T10:20:52.378Z,73.14
2023-01-28T10:23:28.038Z,73.29
2023-01-28T10:25:57.853Z,73.10
2023-01-28T10:28:27.907Z,72.09
2023-01-28T10:30:54.977Z,71.75
2023-01-28T10:33:27.553Z,71.31
2023-01-28T10:35:57.784Z,71.21
2023-01-28T10:38:26.832Z,71.02
2023-01-28T10:40:58.283Z,70.66
2023-01-28T10:43:26.748Z,70.25
2023-01-28T10:46:18.422Z,69.80
2023-01-28T10:48:56.385Z,69.53
2023-01-28T10:51:34.739Z,70.04
2023-01-28T10:54:01.357Z,69.79
2023-01-28T10:56:35.491Z,70.52
2023-01-28T10:59:06.238Z,71.45
2023-01-28T11:01:47.437Z,70.26
2023-01-28T11:04:20.215Z,70.43
2023-01-28T11:06:54.108Z,69.58
2023-01-28T11:09:25.582Z,70.43
2023-01-28T11:11:52.096Z,70.54
2023-01-28T11:14:24.135Z,70.61
2023-01-28T11:16:52.387Z,70.35
2023-01-28T11:19:22.963Z,69.75
2023-01-28T11:21:54.221Z,70.15
2023-01-28T11:24:26.345Z,70.32
2023-01-28T11:26:55.386Z,71.72
2023-01-28T11:29:24.734Z,70.25
2023-01-28T11:31:51.700Z,71.06
2023-01-28T11:34:19.493Z,71.45
2023-01-28T11:37:03.761Z,71.43
2023-01-28T11:39:30.689Z,71.46
2023-01-28T11:42:12.366Z,69.86
2023-01-28T11:44:40.096Z,69.91
2023-01-28T11:47:47.161Z,70.21
2023-01-28T11:50:33.183Z,68.93
2023-01-28T11:53:24.154Z,69.82
2023-01-28T11:56:26.223Z,70.48
2023-01-28T11:59:09.676Z,70.88
2023-01-28T12:02:06.648Z,70.41
2023-01-28T12:04:48.239Z,70.69
2023-01-28T12:07:35.958Z,70.89
2023-01-28T12:10:28.346Z,69.54
2023-01-28T12:13:22.678Z,69.19
2023-01-28T12:16:12.513Z,69.67
2023-01-28T12:19:03.183Z,70.12
2023-01-28T12:21:36.657Z,70.11
2023-01-28T12:24:18.377Z,69.44
2023-01-28T12:27:26.713Z,68.95
2023-01-28T12:30:11.486Z,69.15
2023-01-28T12:33:08.611Z,69.19
2023-01-28T12:35:58.415Z,70.02
2023-01-28T12:38:50.536Z,70.25
2023-01-28T12:41:20.681Z,68.43
2023-01-28T12:43:54.765Z,68.12
2023-01-28T12:46:42.709Z,68.25
2023-01-28T12:49:17.951Z,68.65
2023-01-28T12:52:08.842Z,69.32
2023-01-28T12:55:06.764Z,66.41
2023-01-28T12:57:35.200Z,68.03
2023-01-28T13:00:25.837Z,67.86
2023-01-28T13:03:02.057Z,64.68
2023-01-28T13:05:38.463Z,65.39
2023-01-28T13:08:15.120Z,64.03
2023-01-28T13:10:43.978Z,63.45
2023-01-28T13:13:33.733Z,66.36
2023-01-28T13:16:01.638Z,65.73
2023-01-28T13:19:04.040Z,65.17
2023-01-28T13:21:40.167Z,65.24
2023-01-28T13:24:14.155Z,65.93
2023-01-28T13:26:51.242Z,64.21
2023-01-28T13:29:30.296Z,65.57
2023-01-28T13:32:00.173Z,64.94
2023-01-28T13:34:40.640Z,63.83
2023-01-28T13:37:15.965Z,64.14
2023-01-28T13:39:49.616Z,63.29
2023-01-28T13:42:22.755Z,63.04
2023-01-28T13:44:49.635Z,63.92
2023-01-28T13:47:33.901Z,63.83
2023-01-28T13:50:04.482Z,63.56
2023-01-28T13:52:37.496Z,63.00
2023-01-28T13:55:33.690Z,60.61
2023-01-28T13:58:06.395Z,62.00
2023-01-28T14:01:01.123Z,62.55
2023-01-28T14:04:05.122Z,62.92
2023-01-28T14:06:37.553Z,62.82
2023-01-28T14:09:31.855Z,62.14
2023-01-28T14:12:13.275Z,61.88
2023-01-28T14:15:07.854Z,61.96
2023-01-28T14:17:53.845Z,59.65
2023-01-28T14:20:25.282Z,60.33
2023-01-28T14:22:59.300Z,60.87
2023-01-28T14:25:33.887Z,57.94
2023-01-28T14:28:02.589Z,57.87
2023-01-28T14:30:42.268Z,57.27
2023-01-28T14:33:11.865Z,57.13
2023-01-28T14:35:44.907Z,57.02
2023-01-28T14:38:17.598Z,57.27
2023-01-28T14:40:45.292Z,57.33
2023-01-28T14:43:20.449Z,56.83
2023-01-28T14:46:28.163Z,59.72
2023-01-28T14:49:17.220Z,59.12
2023-01-28T14:52:20.411Z,59.68
2023-01-28T14:55:04.481Z,59.17
2023-01-28T14:57:30.965Z,59.58
2023-01-28T14:59:58.133Z,59.45
2023-01-28T15:02:26.751Z,58.60
2023-01-28T15:04:53.785Z,58.51
2023-01-28T15:07:21.776Z,60.69
2023-01-28T15:10:07.146Z,61.87
2023-01-28T15:12:38.780Z,61.01
2023-01-28T15:15:33.946Z,62.87
2023-01-28T15:18:04.349Z,62.94
2023-01-28T15:20:32.053Z,62.68
2023-01-28T15:22:59.005Z,63.66
2023-01-28T15:25:29.197Z,63.66
2023-01-28T15:28:01.714Z,64.59
2023-01-28T15:30:31.782Z,64.54
2023-01-28T15:33:03.314Z,64.43
2023-01-28T15:35:30.175Z,65.02
2023-01-28T15:37:57.043Z,66.09
2023-01-28T15:40:25.901Z,66.37
2023-01-28T15:42:55.199Z,67.56
2023-01-28T15:45:23.448Z,66.92
2023-01-28T15:47:51.273Z,67.41
2023-01-28T15:50:21.396Z,68.73
2023-01-28T15:52:49.237Z,68.23
2023-01-28T15:55:37.459Z,68.14
2023-01-28T15:58:18.688Z,68.36
2023-01-28T16:00:46.120Z,68.53
2023-01-28T16:03:21.677Z,69.40
2023-01-28T16:06:19.725Z,70.01
2023-01-28T16:08:48.122Z,70.17
2023-01-28T16:11:22.870Z,69.99
2023-01-28T16:13:49.609Z,70.02
2023-01-28T16:16:26.932Z,70.69
2023-01-28T16:18:55.657Z,71.81
2023-01-28T16:21:28.864Z,70.68
2023-01-28T16:23:59.954Z,72.06
2023-01-28T16:26:29.447Z,72.87
2023-01-28T16:28:55.930Z,72.02
2023-01-28T16:31:22.549Z,72.95
2023-01-28T16:33:49.117Z,74.47
2023-01-28T16:36:19.168Z,74.53
2023-01-28T16:38:46.275Z,75.52
2023-01-28T16:41:15.702Z,74.23
2023-01-28T16:43:42.114Z,73.56
2023-01-28T16:46:11.556Z,74.31
2023-01-28T16:48:37.942Z,75.43
2023-01-28T16:51:04.832Z,75.52
2023-01-28T16:53:33.651Z,76.21
2023-01-28T16:56:00.387Z,77.31
2023-01-28T16:58:27.514Z,77.64
2023-01-28T17:00:54.264Z,78.55
2023-01-28T17:03:20.851Z,78.85
2023-01-28T17:05:47.455Z,78.87
2023-01-28T17:08:13.911Z,79.10
2023-01-28T17:10:40.315Z,80.81
2023-01-28T17:13:07.033Z,81.69
2023-01-28T17:15:35.378Z,81.53
2023-01-28T17:18:01.814Z,82.16
2023-01-28T17:20:28.304Z,82.90
2023-01-28T17:22:54.667Z,83.57
2023-01-28T17:25:21.028Z,82.14
2023-01-28T17:27:50.090Z,81.62
2023-01-28T17:30:19.208Z,82.71
2023-01-28T17:32:45.718Z,83.67
2023-01-28T17:35:12.224Z,84.88
2023-01-28T17:37:38.911Z,84.80
2023-01-28T17:40:05.883Z,85.04
2023-01-28T17:42:32.379Z,85.65
2023-01-28T17:45:02.925Z,86.08
2023-01-28T17:47:30.709Z,86.33
2023-01-28T17:49:57.942Z,86.23
2023-01-28T17:52:24.677Z,86.43
2023-01-28T17:54:51.178Z,86.76
2023-01-28T17:57:17.584Z,87.27
2023-01-28T17:59:43.991Z,88.43
2023-01-28T18:02:11.681Z,88.67
2023-01-28T18:04:39.545Z,88.47
2023-01-28T18:07:10.747Z,89.20
2023-01-28T18:09:42.262Z,90.02
2023-01-28T18:12:12.217Z,89.78
2023-01-28T18:14:39.501Z,89.80
2023-01-28T18:17:06.821Z,90.30
2023-01-28T18:19:33.473Z,90.57
2023-01-28T18:21:59.870Z,90.52
2023-01-28T18:24:28.847Z,91.05
2023-01-28T18:27:00.865Z,90.94
2023-01-28T18:29:28.828Z,91.71
2023-01-28T18:31:56.807Z,92.00
2023-01-28T18:34:25.756Z,92.27
2023-01-28T18:36:52.697Z,92.29
2023-01-28T18:39:20.895Z,92.66
2023-01-28T18:41:47.673Z,92.72
2023-01-28T18:44:15.397Z,92.70
2023-01-28T18:46:42.109Z,92.38
2023-01-28T18:49:08.621Z,92.05
2023-01-28T18:51:35.200Z,93.04
2023-01-28T18:54:03.977Z,93.04
2023-01-28T18:56:31.670Z,93.49
2023-01-28T18:58:59.717Z,94.03
2023-01-28T19:01:26.908Z,94.16
2023-01-28T19:03:56.991Z,93.98
2023-01-28T19:06:24.147Z,94.52
2023-01-28T19:09:01.795Z,94.35
2023-01-28T19:11:29.711Z,93.76
2023-01-28T19:13:56.830Z,93.42
2023-01-28T19:16:24.542Z,93.79
2023-01-28T19:18:56.155Z,94.01
2023-01-28T19:21:23.547Z,94.23
2023-01-28T19:23:58.459Z,94.19
2023-01-28T19:26:26.441Z,94.32
2023-01-28T19:28:52.928Z,94.42
2023-01-28T19:31:21.449Z,94.75
2023-01-28T19:33:48.933Z,94.63
2023-01-28T19:36:15.673Z,94.91
2023-01-28T19:38:42.120Z,94.61
2023-01-28T19:41:08.560Z,94.85
2023-01-28T19:43:35.369Z,95.59
2023-01-28T19:46:05.870Z,95.48
2023-01-28T19:48:33.368Z,95.34
2023-01-28T19:51:07.327Z,94.85
2023-01-28T19:53:35.139Z,95.12
2023-01-28T19:56:07.859Z,96.10
2023-01-28T19:58:35.790Z,95.52
2023-01-28T20:01:07.207Z,95.46
2023-01-28T20:03:33.861Z,95.87
2023-01-28T20:06:05.023Z,95.78
2023-01-28T20:08:32.297Z,96.24
2023-01-28T20:11:03.372Z,96.64
2023-01-28T20:13:31.369Z,96.42
2023-01-28T20:15:58.030Z,96.35
2023-01-28T20:18:25.802Z,96.45
2023-01-28T20:20:55.706Z,96.67
2023-01-28T20:23:22.973Z,97.55
2023-01-28T20:25:51.153Z,96.64
2023-01-28T20:28:18.119Z,96.58
2023-01-28T20:30:44.618Z,95.80
2023-01-28T20:33:11.178Z,95.61
2023-01-28T20:35:37.642Z,95.53
2023-01-28T20:38:04.172Z,96.04
2023-01-28T20:40:31.241Z,95.84
2023-01-28T20:42:57.944Z,95.98
2023-01-28T20:45:24.618Z,95.85
2023-01-28T20:47:51.194Z,95.63
2023-01-28T20:50:17.978Z,95.47
2023-01-28T20:52:44.718Z,95.07
2023-01-28T20:55:11.765Z,95.57
2023-01-28T20:57:38.585Z,95.31
2023-01-28T21:00:06.318Z,96.05
2023-01-28T21:02:35.355Z,96.14
2023-01-28T21:05:02.288Z,96.56
2023-01-28T21:07:28.688Z,96.59
2023-01-28T21:09:55.179Z,96.23
2023-01-28T21:12:21.585Z,95.31
2023-01-28T21:14:50.033Z,96.11
2023-01-28T21:17:16.552Z,95.88
2023-01-28T21:19:43.048Z,95.70
2023-01-28T21:22:09.428Z,96.18
2023-01-28T21:24:35.866Z,95.94
2023-01-28T21:27:02.335Z,96.45
2023-01-28T21:29:28.742Z,96.94
2023-01-28T21:31:55.135Z,96.69
2023-01-28T21:34:21.554Z,96.98
2023-01-28T21:36:47.933Z,96.78
2023-01-28T21:39:14.322Z,97.05
2023-01-28T21:41:40.713Z,97.29
2023-01-28T21:44:07.228Z,97.42
2023-01-28T21:46:34.837Z,97.26
2023-01-28T21:49:03.322Z,97.58
2023-01-28T21:51:36.417Z,97.36
2023-01-28T21:54:04.421Z,97.69
2023-01-28T21:56:30.875Z,97.90
2023-01-28T21:59:15.717Z,97.85
2023-01-28T22:01:45.892Z,98.08
2023-01-28T22:04:12.767Z,98.14
2023-01-28T22:06:39.159Z,98.30
2023-01-28T22:09:05.651Z,98.49
2023-01-28T22:11:32.414Z,98.24
2023-01-28T22:13:58.998Z,98.48
2023-01-28T22:16:25.572Z,98.86
2023-01-28T22:18:51.961Z,98.73
2023-01-28T22:21:18.365Z,98.16
2023-01-28T22:23:44.777Z,97.81
2023-01-28T22:26:11.179Z,98.06
2023-01-28T22:28:37.883Z,98.62
2023-01-28T22:31:10.205Z,98.92
2023-01-28T22:33:37.178Z,98.09
2023-01-28T22:36:08.721Z,98.23
2023-01-28T22:38:36.786Z,98.24
2023-01-28T22:41:05.241Z,98.54
2023-01-28T22:43:32.056Z,98.23
2023-01-28T22:46:00.162Z,98.31
2023-01-28T22:48:26.985Z,98.70
2023-01-28T22:50:53.413Z,98.81
2023-01-28T22:53:19.883Z,98.63
2023-01-28T22:55:50.491Z,97.97
2023-01-28T22:58:17.307Z,98.17
2023-01-28T23:00:43.700Z,98.05
2023-01-28T23:03:10.199Z,98.44
2023-01-28T23:05:36.952Z,98.43
2023-01-28T23:08:12.566Z,98.19
2023-01-28T23:10:52.525Z,98.11
2023-01-28T23:13:22.301Z,98.17
2023-01-28T23:16:08.743Z,97.92
2023-01-28T23:18:41.794Z,98.50
2023-01-28T23:21:40.124Z,97.85
2023-01-28T23:24:21.682Z,98.15
2023-01-28T23:26:56.497Z,98.77
2023-01-28T23:29:25.255Z,98.40
2023-01-28T23:32:00.919Z,98.12
2023-01-28T23:34:34.329Z,98.40
2023-01-28T23:37:02.609Z,98.08
2023-01-28T23:39:29.066Z,98.54
2023-01-28T23:41:55.737Z,98.50
2023-01-28T23:44:23.659Z,98.73
2023-01-28T23:46:50.121Z,98.93
2023-01-28T23:49:16.647Z,99.11
2023-01-28T23:51:43.153Z,99.04
2023-01-28T23:54:09.570Z,99.11
2023-01-28T23:56:36.063Z,99.31
2023-01-28T23:59:02.772Z,99.90
